Latest Coastal Weather Observations for Troughton Island

IDW60701

Issued at 11:41 pm WST Tuesday 24 May 2016 (issued every 10 minutes, with the page automatically refreshed every 10 minutes)

About coastal observations | Map of coastal stations | Coastal observations for WA | Marine services | Other Formats
Station Details ID: 001007 Name: TROUGHTON ISLAND Lat: -13.75 Lon: 126.15 Height: 6.0 m
Data from the previous 72 hours. | See also: Recent months at Troughton Island
Date/Time
WST
Temp

°C
Wind Pressure Rain
since 9am
mm
Weather Cloud Vis
km
Sea
Height
m
Swell
Dir
 
Speed
knots
Gust
knots
hPa Trend Height
m
Period
s
Dir
24/11:30pm 27.6 CALM 0 0 1012.9 - 0.0 - - - - - - -
24/11:00pm 28.1 CALM 0 0 1013.0 - 0.0 - - - - - - -
24/10:30pm 28.0 ESE 4 4 1013.0 - 0.0 - - - - - - -
24/10:00pm 27.9 CALM 0 0 1013.0 - 0.0 - - - - - - -
24/09:30pm 27.6 CALM 0 0 1013.0 - 0.0 - - - - - - -
24/09:00pm 27.3 CALM 0 0 1012.9 - 0.0 - - - - - - -
24/08:30pm 28.4 N 3 4 1013.0 - 0.0 - - - - - - -
24/08:00pm 28.3 NNW 4 5 1012.9 - 0.0 - - - - - - -
24/07:30pm 28.8 N 5 6 1012.6 - 0.0 - - - - - - -
24/07:00pm 28.9 N 7 8 1012.3 - 0.0 - - - - - - -
24/06:30pm 28.8 N 7 9 1012.1 - 0.0 - - - - - - -
24/06:00pm 29.0 N 9 10 1011.8 - 0.0 - - - - - - -
24/05:30pm 29.1 N 8 10 1011.6 - 0.0 - - - - - - -
24/05:00pm 29.4 N 8 9 1011.4 - 0.0 - - - - - - -
24/04:30pm 29.9 N 6 8 1011.1 - 0.0 - - - - - - -
24/04:00pm 30.1 NNE 7 9 1011.1 - 0.0 - - - - - - -
24/03:30pm 30.7 NNE 7 9 1011.1 - 0.0 - - - - - - -
24/03:00pm 31.1 NNE 7 9 1011.1 - 0.0 - - - - - - -
24/02:30pm 31.6 NE 8 10 1011.3 - 0.0 - - - - - - -
24/02:00pm 31.5 NE 8 11 1011.4 - 0.0 - - - - - - -
24/01:30pm 31.8 NE 8 10 1011.5 - 0.0 - - - - - - -
24/01:00pm 30.9 NE 8 11 1011.7 - 0.0 - - - - - - -
24/12:30pm 31.0 NE 8 10 1012.1 - 0.0 - - - - - - -
24/12:00pm 30.0 ENE 8 10 1012.5 - 0.0 - - - - - - -
24/11:30am 30.0 ENE 9 11 1013.0 - 0.0 - - - - - - -
24/11:00am 30.6 E 10 13 1013.5 - 0.0 - - - - - - -
24/10:30am 29.7 E 10 12 1013.8 - 0.0 - - - - - - -
24/10:00am 30.3 E 10 12 1014.1 - 0.0 - - - - - - -
24/09:30am 30.0 ESE 10 13 1014.1 - 0.0 - - - - - - -
24/09:00am 29.2 ESE 10 13 1014.2 - 0.0 - - - - - - -
24/08:30am 29.1 ESE 10 12 1014.1 - 0.0 - - - - - - -
24/08:00am 28.7 ESE 11 13 1014.0 - 0.0 - - - - - - -
24/07:30am 28.3 ESE 12 14 1013.9 - 0.0 - - - - - - -
24/07:00am 27.8 ESE 11 14 1013.6 - 0.0 - - - - - - -
24/06:30am 27.3 SE 11 13 1013.4 - 0.0 - - - - - - -
24/06:00am 26.9 SE 11 13 1013.1 - 0.0 - - - - - - -
24/05:30am 26.8 SE 10 12 1012.7 - 0.0 - - - - - - -
24/05:00am 26.8 SE 10 11 1012.4 - 0.0 - - - - - - -
24/04:30am 26.9 SE 11 13 1012.4 - 0.0 - - - - - - -
24/04:00am 26.9 SE 11 13 1012.4 - 0.0 - - - - - - -
24/03:30am 27.4 SE 13 15 1012.3 - 0.0 - - - - - - -
24/03:00am 27.4 SSE 12 15 1012.2 - 0.0 - - - - - - -
24/02:30am 27.8 SSE 11 15 1012.3 - 0.0 - - - - - - -
24/02:00am 28.2 SSE 13 16 1012.3 - 0.0 - - - - - - -
24/01:30am 28.9 SW 9 11 1012.5 - 0.0 - - - - - - -
24/01:00am 29.1 SW 9 11 1012.9 - 0.0 - - - - - - -
24/12:30am 29.0 SW 9 11 1013.0 - 0.0 - - - - - - -
24/12:00am 28.9 SW 9 11 1013.1 - 0.0 - - - - - - -
 
Date/Time
WST
Temp

°C
Wind Pressure Rain
since 9am
mm
Weather Cloud Vis
km
Sea
Height
m
Swell
Dir
 
Speed
knots
Gust
knots
hPa Trend Height
m
Period
s
Dir
23/11:30pm 29.0 SW 9 11 1013.3 - 0.0 - - - - - - -
23/11:00pm 28.9 SW 9 11 1013.5 - 0.0 - - - - - - -
23/10:30pm 28.9 WSW 9 11 1013.5 - 0.0 - - - - - - -
23/10:00pm 29.0 WSW 10 11 1013.6 - 0.0 - - - - - - -
23/09:30pm 29.1 WSW 9 11 1013.5 - 0.0 - - - - - - -
23/09:00pm 28.6 WSW 8 9 1013.4 - 0.0 - - - - - - -
23/08:30pm 28.6 W 8 9 1013.3 - 0.0 - - - - - - -
23/08:00pm 28.7 WNW 8 9 1013.1 - 0.0 - - - - - - -
23/07:30pm 28.7 WNW 8 9 1012.7 - 0.0 - - - - - - -
23/07:00pm 28.9 W 9 10 1012.3 - 0.0 - - - - - - -
23/06:30pm 29.0 W 10 11 1011.8 - 0.0 - - - - - - -
23/06:00pm 29.1 W 10 12 1011.4 - 0.0 - - - - - - -
23/05:30pm 29.4 W 10 11 1011.3 - 0.0 - - - - - - -
23/05:00pm 29.8 W 10 13 1011.1 - 0.0 - - - - - - -
23/04:30pm 30.5 W 10 12 1011.1 - 0.0 - - - - - - -
23/04:00pm 30.9 W 10 11 1010.9 - 0.0 - - - - - - -
23/03:30pm 31.4 WSW 8 9 1010.6 - 0.0 - - - - - - -
23/03:00pm 31.6 WSW 9 11 1010.6 - 0.0 - - - - - - -
23/02:30pm 32.0 WSW 9 11 1010.6 - 0.0 - - - - - - -
23/02:00pm 32.2 SW 9 11 1010.7 - 0.0 - - - - - - -
23/01:30pm 32.0 SW 11 13 1010.9 - 0.0 - - - - - - -
23/01:00pm 32.0 WSW 8 10 1011.0 - 0.0 - - - - - - -
23/12:30pm 31.5 WSW 7 9 1011.4 - 0.0 - - - - - - -
23/12:00pm 32.3 SW 6 8 1011.9 - 0.0 - - - - - - -
23/11:30am 31.5 SW 7 8 1012.5 - 0.0 - - - - - - -
23/11:00am 31.3 SSW 7 9 1013.0 - 0.0 - - - - - - -
23/10:30am 31.5 SW 6 8 1013.4 - 0.0 - - - - - - -
23/10:00am 31.0 SW 5 6 1013.6 - 0.0 - - - - - - -
23/09:30am 30.9 SW 6 7 1014.0 - 0.0 - - - - - - -
23/09:00am 31.0 SW 9 11 1014.4 - 0.0 - - - - - - -
23/08:30am 30.6 SW 6 9 1014.2 - 0.0 - - - - - - -
23/08:00am 30.0 SW 6 8 1014.2 - 0.0 - - - - - - -
23/07:30am 29.5 SSW 7 9 1014.2 - 0.0 - - - - - - -
23/07:00am 29.0 SW 8 10 1013.9 - 0.0 - - - - - - -
23/06:30am 28.3 WSW 7 9 1013.7 - 0.0 - - - - - - -
23/06:00am 27.8 SW 6 8 1013.3 - 0.0 - - - - - - -
23/05:30am 27.8 SW 7 9 1012.9 - 0.0 - - - - - - -
23/05:00am 27.8 WSW 7 7 1012.7 - 0.0 - - - - - - -
23/04:30am 28.0 SW 8 9 1012.8 - 0.0 - - - - - - -
23/04:00am 28.0 WSW 7 9 1012.6 - 0.0 - - - - - - -
23/03:30am 27.9 WSW 7 8 1012.4 - 0.0 - - - - - - -
23/03:00am 28.0 WSW 8 10 1012.5 - 0.0 - - - - - - -
23/02:30am 28.2 WSW 8 11 1012.7 - 0.0 - - - - - - -
23/02:00am 28.1 WSW 7 9 1012.9 - 0.0 - - - - - - -
23/01:30am 28.1 WSW 6 7 1013.0 - 0.0 - - - - - - -
23/01:00am 28.0 WSW 5 7 1013.1 - 0.0 - - - - - - -
23/12:30am 28.1 WSW 6 7 1013.4 - 0.0 - - - - - - -
23/12:00am 27.8 W 5 6 1013.2 - 0.0 - - - - - - -
 
Date/Time
WST
Temp

°C
Wind Pressure Rain
since 9am
mm
Weather Cloud Vis
km
Sea
Height
m
Swell
Dir
 
Speed
knots
Gust
knots
hPa Trend Height
m
Period
s
Dir
22/11:30pm 27.9 W 5 7 1013.3 - 0.0 - - - - - - -
22/11:00pm 28.0 W 6 8 1013.4 - 0.0 - - - - - - -
22/10:30pm 27.8 WNW 4 5 1013.5 - 0.0 - - - - - - -
22/10:00pm 27.6 NW 4 5 1013.6 - 0.0 - - - - - - -
22/09:30pm 27.6 NW 6 7 1013.4 - 0.0 - - - - - - -
22/09:00pm 27.8 NW 7 9 1013.4 - 0.0 - - - - - - -
22/08:30pm 27.9 NW 7 9 1013.5 - 0.0 - - - - - - -
22/08:00pm 27.7 NW 6 7 1013.5 - 0.0 - - - - - - -
22/07:30pm 27.8 NNW 7 8 1013.1 - 0.0 - - - - - - -
22/07:00pm 28.1 NNW 8 9 1012.7 - 0.0 - - - - - - -
22/06:30pm 28.2 NNW 7 8 1012.2 - 0.0 - - - - - - -
22/06:00pm 28.6 NNW 7 9 1011.8 - 0.0 - - - - - - -
22/05:30pm 28.8 NNW 6 7 1011.6 - 0.0 - - - - - - -
22/05:00pm 29.3 NNW 6 7 1011.4 - 0.0 - - - - - - -
22/04:30pm 30.0 NNW 5 7 1011.1 - 0.0 - - - - - - -
22/04:00pm 30.6 NW 6 7 1010.9 - 0.0 - - - - - - -
22/03:30pm 30.9 NW 5 7 1010.9 - 0.0 - - - - - - -
22/03:00pm 30.9 WNW 5 7 1010.9 - 0.0 - - - - - - -
22/02:30pm 30.9 WNW 5 6 1011.0 - 0.0 - - - - - - -
22/02:00pm 30.8 W 5 6 1011.1 - 0.0 - - - - - - -
22/01:30pm 30.7 WSW 6 7 1011.4 - 0.0 - - - - - - -
22/01:00pm 30.8 WSW 5 6 1011.9 - 0.0 - - - - - - -
22/12:30pm 30.8 SW 5 6 1012.2 - 0.0 - - - - - - -
22/12:00pm 30.8 SSW 5 6 1012.5 - 0.0 - - - - - - -
22/11:30am 30.7 ESE 5 7 1012.7 - 0.0 - - - - - - -
22/11:00am 30.9 E 5 7 1012.9 - 0.0 - - - - - - -
22/10:30am 30.6 SE 6 9 1013.3 - 0.0 - - - - - - -
22/10:00am 30.2 SE 7 9 1013.8 - 0.0 - - - - - - -
22/09:30am 30.6 SE 7 8 1014.0 - 0.0 - - - - - - -
22/09:00am 29.6 SE 8 9 1014.1 - 0.0 - - - - - - -
22/08:30am 29.5 SE 7 8 1014.2 - 0.0 - - - - - - -
22/08:00am 29.5 SSE 6 8 1014.1 - 0.0 - - - - - - -
22/07:30am 29.3 S 4 6 1013.8 - 0.0 - - - - - - -
22/07:00am 29.0 S 4 6 1013.6 - 0.0 - - - - - - -
22/06:30am 27.8 WSW 4 5 1013.5 - 0.0 - - - - - - -
22/06:00am 27.3 SW 4 5 1013.2 - 0.0 - - - - - - -
22/05:30am 26.8 WSW 3 4 1012.8 - 0.0 - - - - - - -
22/05:00am 26.9 WSW 3 4 1012.5 - 0.0 - - - - - - -
22/04:30am 27.1 NW 3 4 1012.3 - 0.0 - - - - - - -
22/04:00am 27.1 CALM 0 0 1012.3 - 0.0 - - - - - - -
22/03:30am 27.3 CALM 0 0 1012.0 - 0.0 - - - - - - -
22/03:00am 27.5 CALM 0 0 1011.9 - 0.0 - - - - - - -
22/02:30am 28.2 NNW 3 5 1012.0 - 0.0 - - - - - - -
22/02:00am 28.4 N 5 7 1012.1 - 0.0 - - - - - - -
22/01:30am 28.5 N 6 7 1012.4 - 0.0 - - - - - - -
22/01:00am 28.1 NNE 5 6 1012.5 - 0.0 - - - - - - -
22/12:30am 28.4 NNE 6 7 1012.7 - 0.0 - - - - - - -
22/12:00am 28.2 NNE 5 6 1012.9 - 0.0 - - - - - - -

Other Formats:

Comma delimited format used in spreadsheet applications
http://www.bom.gov.au/fwo/IDW60701/IDW60701.94102.axf

JavaScript Object Notation format (JSON) in row-major order
http://www.bom.gov.au/fwo/IDW60701/IDW60701.94102.json